Terminal Aerodrome Forecast
Issued by NWS

Home | Current Version | Previous Version | Text Only | Print | Product List | Glossary Off
Versions: 1 2 3 4 5 6 7 8 9 10 11 12 13 14

000
FTUS45 KGGW 221720
TAFSDY
TAF
KSDY 221720Z 2218/2318 08013G22KT P6SM -SHRA FEW015 OVC070
     FM222200 08014G25KT P6SM OVC050
     FM230000 08015G23KT P6SM -SHRA OVC045
     FM230600 09012G20KT P6SM VCSH OVC025
     FM231200 08009KT P6SM RA OVC015=

USA.gov is the U.S. government's official web portal to all federal, state and local government web resources and services.